Terminal Aerodrome Forecast
Issued by NWS

Home | Current Version | Previous Version | Text Only | Print | Product List | Glossary On
Versions: 1 2 3 4 5 6 7 8 9 10 11 12 13 14
000
FTUS46 KOTX 170528
TAFSFF
TAF
KSFF 170528Z 1706/1806 VRB04KT P6SM BKN060 OVC100
     FM171500 16002KT P6SM -RA SCT030 BKN040 OVC050
     FM171800 21007KT P6SM -RA SCT020 BKN030 OVC050
     FM180100 20008KT P6SM -RA BKN020 OVC040=

USA.gov is the U.S. government's official web portal to all federal, state and local government web resources and services.